ROMMA est une association bénévole à but non lucratif. Votre soutien est indispensable : ADHERER à ROMMA ou FAIRE un DON

Montélimar - (26, Drôme)

Basse vallée du Rhône (88 m)   Longitude: 04° 45' E   Latitude: 44° 32' N Station partenaire n°164
 

Détail journalier du     <<     >>

Température Precipitation Humidité Pression Vent Dir Rafale Dir. rafale Ensol.
Heure (°C) (mm) (%) (hPa) (km/h) (km/h) (min)
01:00 18.506110175N21NNO0
02:00 17.606610172---15N0
03:00 17.906410172---15NNE0
04:00 17.906210187NE24NE0
05:00 17.9058101812NE31ENE0
06:00 17.7056101910NE29NNE0
07:00 17.0058101910NE35NE0
08:00 16.406110205NE29NE6
09:00 17.4058102110NE29NE60
10:00 18.9055102216NE37NE60
11:00 20.6051102217NE39N57
12:00 21.8048102215NE34ENE55
13:00 23.9040102216NE42ENE58
14:00 24.7036102219NE45ENE53
15:00 25.7036102217NE45NE53
16:00 25.9035102119NE42NE60
17:00 26.4036102118NE39N60
18:00 25.9037102121N40NO51
19:00 25.0039102220N44N16
20:00 23.7041102219N39NNO0
21:00 22.3043102411N29NNO0
22:00 21.204710241---15NNO0
23:00 20.704810256---31N0
minuit 19.70481025013NNO0

Graphique du 11-09-2019

 

Serveur OMMA